createdAt,value
2023-01-26T08:42:30.991Z,716.00
2023-01-26T08:43:30.932Z,688.00
2023-01-26T08:44:30.901Z,680.00
2023-01-26T08:45:30.917Z,780.00
2023-01-26T08:46:30.879Z,860.00
2023-01-26T08:47:30.861Z,844.00
2023-01-26T08:48:30.846Z,836.00
2023-01-26T08:49:30.841Z,816.00
2023-01-26T08:50:30.835Z,820.00
2023-01-26T08:51:30.810Z,824.00
2023-01-26T08:52:30.809Z,812.00
2023-01-26T08:53:30.781Z,784.00
2023-01-26T08:54:30.774Z,756.00
2023-01-26T08:55:30.819Z,740.00
2023-01-26T08:56:30.751Z,700.00
2023-01-26T08:57:30.750Z,708.00
2023-01-26T08:58:30.761Z,736.00
2023-01-26T08:59:30.727Z,760.00
2023-01-26T09:00:30.720Z,760.00
2023-01-26T09:01:30.779Z,720.00
2023-01-26T09:02:30.814Z,704.00
2023-01-26T09:03:30.667Z,684.00
2023-01-26T09:04:30.679Z,648.00
2023-01-26T09:05:30.649Z,656.00
2023-01-26T09:06:30.655Z,716.00
2023-01-26T09:07:30.638Z,796.00
2023-01-26T09:08:30.630Z,816.00
2023-01-26T09:09:30.629Z,756.00
2023-01-26T09:10:30.615Z,712.00
2023-01-26T09:11:30.596Z,684.00
2023-01-26T09:12:30.587Z,616.00
2023-01-26T09:13:30.569Z,548.00
2023-01-26T09:14:30.593Z,576.00
2023-01-26T09:15:30.534Z,660.00
2023-01-26T09:16:30.700Z,728.00
2023-01-26T09:17:30.525Z,780.00
2023-01-26T09:18:30.521Z,788.00
2023-01-26T09:19:31.238Z,748.00
2023-01-26T09:20:30.483Z,680.00
2023-01-26T09:21:30.486Z,640.00
2023-01-26T09:22:30.473Z,580.00
2023-01-26T09:23:30.463Z,560.00
2023-01-26T09:24:30.456Z,580.00
2023-01-26T09:25:30.427Z,628.00
2023-01-26T09:26:30.490Z,708.00
2023-01-26T09:27:30.400Z,784.00
2023-01-26T09:28:30.407Z,856.00
2023-01-26T09:29:30.380Z,844.00
2023-01-26T09:30:30.527Z,768.00
2023-01-26T09:31:30.553Z,736.00
2023-01-26T09:32:30.366Z,760.00
2023-01-26T09:33:30.334Z,800.00
2023-01-26T09:34:30.339Z,872.00
2023-01-26T09:35:30.326Z,900.00
2023-01-26T09:36:30.318Z,876.00
2023-01-26T09:37:30.289Z,856.00
2023-01-26T09:38:30.280Z,820.00
2023-01-26T09:39:30.281Z,848.00
2023-01-26T09:40:30.275Z,888.00
2023-01-26T09:41:30.260Z,920.00
2023-01-26T09:42:30.237Z,908.00
2023-01-26T09:43:30.243Z,892.00
2023-01-26T09:44:30.225Z,856.00
2023-01-26T09:45:30.219Z,792.00
2023-01-26T09:46:30.245Z,752.00
2023-01-26T09:47:30.188Z,784.00
2023-01-26T09:48:30.180Z,776.00
2023-01-26T09:49:30.150Z,816.00
2023-01-26T09:50:30.160Z,832.00
2023-01-26T09:51:30.163Z,936.00
2023-01-26T09:52:30.122Z,976.00
2023-01-26T09:53:30.120Z,888.00
2023-01-26T09:54:30.102Z,848.00
2023-01-26T09:55:30.133Z,900.00
2023-01-26T09:56:30.083Z,912.00
2023-01-26T09:57:30.079Z,912.00
2023-01-26T09:58:30.070Z,912.00
2023-01-26T09:59:30.042Z,924.00
2023-01-26T10:00:30.039Z,948.00
2023-01-26T10:01:30.121Z,940.00
2023-01-26T10:02:30.062Z,920.00
2023-01-26T10:03:30.016Z,916.00
2023-01-26T10:04:29.986Z,916.00
2023-01-26T10:05:29.974Z,892.00
2023-01-26T10:06:29.970Z,884.00
2023-01-26T10:07:29.982Z,920.00
2023-01-26T10:08:29.963Z,952.00
2023-01-26T10:09:29.930Z,920.00
2023-01-26T10:10:29.933Z,944.00
2023-01-26T10:11:29.917Z,1008.00
2023-01-26T10:12:29.933Z,976.00
2023-01-26T10:13:29.884Z,976.00
2023-01-26T10:14:29.879Z,1024.00
2023-01-26T10:15:29.933Z,968.00
2023-01-26T10:16:29.869Z,944.00
2023-01-26T10:17:29.866Z,948.00
2023-01-26T10:18:29.868Z,968.00
2023-01-26T10:19:29.816Z,900.00
2023-01-26T10:20:29.815Z,856.00
2023-01-26T10:21:29.811Z,888.00
2023-01-26T10:22:29.819Z,876.00
2023-01-26T10:23:29.784Z,912.00
2023-01-26T10:24:29.775Z,908.00
2023-01-26T10:25:29.748Z,948.00
2023-01-26T10:26:29.754Z,992.00
2023-01-26T10:27:29.745Z,1040.00
2023-01-26T10:28:29.729Z,1096.00
2023-01-26T10:29:29.752Z,1132.00
2023-01-26T10:30:29.775Z,1168.00
2023-01-26T10:31:29.719Z,1240.00
2023-01-26T10:32:29.692Z,1240.00
2023-01-26T10:33:29.661Z,1252.00
2023-01-26T10:34:29.671Z,1248.00
2023-01-26T10:35:29.636Z,1276.00
2023-01-26T10:36:29.641Z,1264.00
2023-01-26T10:37:29.637Z,1208.00
2023-01-26T10:38:29.619Z,1204.00
2023-01-26T10:39:29.606Z,1164.00
2023-01-26T10:40:29.586Z,1164.00
2023-01-26T10:41:29.565Z,1252.00
2023-01-26T10:42:29.575Z,1332.00
2023-01-26T10:43:29.551Z,1308.00
2023-01-26T10:44:29.558Z,1212.00
2023-01-26T10:45:29.539Z,1184.00
2023-01-26T10:46:29.615Z,1324.00
2023-01-26T10:47:29.513Z,1404.00
2023-01-26T10:48:29.526Z,1344.00
2023-01-26T10:49:29.496Z,1472.00
2023-01-26T10:52:50.132Z,1672.00
2023-01-26T10:53:50.094Z,1672.00
2023-01-26T10:54:50.085Z,1772.00
2023-01-26T10:55:50.077Z,1832.00
2023-01-26T10:56:50.044Z,1760.00
2023-01-26T10:57:50.034Z,1772.00
2023-01-26T10:58:50.039Z,1700.00
2023-01-26T10:59:50.038Z,1632.00
2023-01-26T11:00:50.019Z,1616.00
2023-01-26T11:01:50.060Z,1464.00
2023-01-26T11:02:50.010Z,1560.00
2023-01-26T11:03:49.981Z,1640.00
2023-01-26T11:04:49.965Z,1644.00
2023-01-26T11:05:49.980Z,1640.00
2023-01-26T11:06:49.933Z,1668.00
2023-01-26T11:07:49.948Z,1612.00
2023-01-26T11:08:49.929Z,1640.00
2023-01-26T11:09:49.904Z,1532.00
2023-01-26T11:10:49.898Z,1400.00
2023-01-26T11:11:49.892Z,1304.00
2023-01-26T11:12:49.865Z,1256.00
2023-01-26T11:13:49.856Z,1200.00
2023-01-26T11:14:49.843Z,1232.00
2023-01-26T11:15:50.012Z,1248.00
2023-01-26T11:16:49.844Z,1232.00
2023-01-26T11:17:49.811Z,1168.00
2023-01-26T11:18:49.830Z,1100.00
2023-01-26T11:19:49.815Z,968.00
2023-01-26T11:20:49.803Z,904.00
2023-01-26T11:21:49.783Z,884.00
2023-01-26T11:22:49.753Z,872.00
2023-01-26T11:23:49.855Z,876.00
2023-01-26T11:24:49.749Z,904.00
2023-01-26T11:25:49.737Z,852.00
2023-01-26T11:26:49.738Z,828.00
2023-01-26T11:27:49.710Z,764.00
2023-01-26T11:28:49.682Z,688.00
2023-01-26T11:29:49.689Z,796.00
2023-01-26T11:30:49.684Z,736.00
2023-01-26T11:31:49.752Z,752.00
2023-01-26T11:32:49.654Z,684.00
2023-01-26T11:33:49.632Z,644.00
2023-01-26T11:34:49.630Z,716.00
2023-01-26T11:35:49.621Z,764.00
2023-01-26T11:36:49.623Z,908.00
2023-01-26T11:37:49.585Z,928.00
2023-01-26T11:38:49.569Z,860.00
2023-01-26T11:39:49.565Z,804.00
2023-01-26T11:40:49.570Z,800.00
2023-01-26T11:41:49.576Z,788.00
2023-01-26T11:42:49.530Z,788.00
2023-01-26T11:43:49.519Z,848.00
2023-01-26T11:44:49.502Z,836.00
2023-01-26T11:45:49.542Z,824.00
2023-01-26T11:46:49.513Z,772.00
2023-01-26T11:47:49.486Z,720.00
2023-01-26T11:48:49.457Z,716.00
2023-01-26T11:49:49.467Z,792.00
2023-01-26T11:50:49.448Z,860.00
2023-01-26T11:51:49.429Z,912.00
2023-01-26T11:52:49.438Z,952.00
2023-01-26T11:53:49.428Z,1016.00
2023-01-26T11:54:49.391Z,948.00
2023-01-26T11:55:49.398Z,896.00
2023-01-26T11:56:49.405Z,872.00
2023-01-26T11:57:49.391Z,864.00
2023-01-26T11:58:49.349Z,904.00
2023-01-26T11:59:49.337Z,908.00
2023-01-26T12:00:49.348Z,884.00
2023-01-26T12:01:49.346Z,776.00
2023-01-26T12:02:49.329Z,768.00
2023-01-26T12:03:49.306Z,712.00
2023-01-26T12:04:49.295Z,680.00
2023-01-26T12:05:49.270Z,692.00
2023-01-26T12:06:49.269Z,744.00
2023-01-26T12:07:49.263Z,804.00
2023-01-26T12:08:49.245Z,780.00
2023-01-26T12:09:49.226Z,764.00
2023-01-26T12:10:49.273Z,764.00
2023-01-26T12:11:49.203Z,748.00
2023-01-26T12:12:49.221Z,764.00
2023-01-26T12:13:49.180Z,792.00
2023-01-26T12:14:49.164Z,764.00
2023-01-26T12:15:49.161Z,724.00
2023-01-26T12:16:49.176Z,744.00
2023-01-26T12:17:49.164Z,792.00
2023-01-26T12:19:01.853Z,828.00
2023-01-26T12:19:50.126Z,772.00
2023-01-26T12:20:49.109Z,780.00
2023-01-26T12:21:49.151Z,796.00
2023-01-26T12:22:49.106Z,748.00
2023-01-26T12:23:49.114Z,796.00
2023-01-26T12:25:50.097Z,728.00
2023-01-26T12:26:49.030Z,800.00
2023-01-26T12:27:49.022Z,784.00
2023-01-26T12:28:49.043Z,780.00
2023-01-26T12:29:49.018Z,724.00
2023-01-26T12:30:49.089Z,712.00
2023-01-26T12:31:49.114Z,688.00
2023-01-26T12:32:48.976Z,692.00
2023-01-26T12:33:48.972Z,684.00
2023-01-26T12:34:48.940Z,692.00
2023-01-26T12:35:48.952Z,752.00
2023-01-26T12:36:48.915Z,688.00
2023-01-26T12:37:48.910Z,688.00
2023-01-26T12:38:48.920Z,680.00
2023-01-26T12:39:48.897Z,736.00
2023-01-26T12:40:48.883Z,788.00
2023-01-26T12:41:48.877Z,880.00
2023-01-26T12:42:48.868Z,824.00
2023-01-26T12:43:48.881Z,1028.00
2023-01-26T12:44:48.897Z,1032.00
2023-01-26T12:45:48.928Z,960.00
2023-01-26T12:46:48.805Z,1016.00
2023-01-26T12:47:48.842Z,1136.00
2023-01-26T12:48:48.805Z,1212.00
2023-01-26T12:49:48.933Z,1224.00
2023-01-26T12:50:48.770Z,1108.00
2023-01-26T12:51:48.755Z,1212.00
2023-01-26T12:52:48.755Z,1128.00
2023-01-26T12:53:48.744Z,1024.00
2023-01-26T12:54:48.724Z,928.00
2023-01-26T12:55:48.712Z,896.00
2023-01-26T12:56:48.706Z,960.00
2023-01-26T12:57:48.699Z,1028.00
2023-01-26T12:58:48.684Z,940.00
2023-01-26T12:59:49.224Z,988.00
2023-01-26T13:00:48.681Z,1080.00
2023-01-26T13:01:48.691Z,1028.00
2023-01-26T13:02:48.670Z,900.00
2023-01-26T13:03:48.638Z,852.00
2023-01-26T13:04:49.305Z,800.00
2023-01-26T13:05:48.705Z,824.00
2023-01-26T13:06:48.585Z,828.00
2023-01-26T13:07:48.591Z,752.00
2023-01-26T13:08:48.563Z,748.00
2023-01-26T13:09:48.582Z,740.00
2023-01-26T13:10:48.558Z,756.00
2023-01-26T13:11:48.555Z,792.00
2023-01-26T13:12:48.533Z,708.00
2023-01-26T13:13:48.564Z,800.00
2023-01-26T13:14:48.513Z,844.00
2023-01-26T13:15:48.625Z,820.00
2023-01-26T13:16:48.536Z,820.00
2023-01-26T13:17:48.531Z,824.00
2023-01-26T13:18:48.481Z,852.00
2023-01-26T13:19:48.490Z,912.00
2023-01-26T13:20:48.557Z,932.00
2023-01-26T13:21:48.490Z,924.00
2023-01-26T13:22:48.472Z,904.00
2023-01-26T13:23:48.422Z,796.00
2023-01-26T13:24:48.397Z,900.00
2023-01-26T13:25:49.358Z,912.00
2023-01-26T13:26:48.385Z,832.00
2023-01-26T13:27:48.364Z,828.00
2023-01-26T13:28:49.268Z,860.00
2023-01-26T13:29:48.343Z,900.00
2023-01-26T13:30:48.356Z,920.00
2023-01-26T13:31:48.347Z,848.00
2023-01-26T13:32:48.331Z,788.00
2023-01-26T13:33:48.283Z,820.00
2023-01-26T13:34:48.277Z,888.00
2023-01-26T13:35:48.273Z,784.00
2023-01-26T13:36:48.267Z,772.00
2023-01-26T13:37:48.235Z,800.00
2023-01-26T13:38:48.241Z,760.00
2023-01-26T13:39:48.214Z,848.00
2023-01-26T13:40:48.205Z,800.00
2023-01-26T13:41:48.207Z,740.00
2023-01-26T13:42:48.257Z,708.00
2023-01-26T13:43:48.180Z,744.00
2023-01-26T13:44:48.171Z,720.00
2023-01-26T13:45:48.158Z,716.00
2023-01-26T13:46:48.228Z,636.00
2023-01-26T13:47:48.140Z,600.00
2023-01-26T13:48:48.155Z,612.00
2023-01-26T13:49:48.116Z,612.00
2023-01-26T13:50:48.096Z,640.00
2023-01-26T13:51:48.098Z,616.00
2023-01-26T13:52:48.162Z,640.00
2023-01-26T13:53:48.066Z,616.00
2023-01-26T13:54:48.061Z,600.00
2023-01-26T13:55:48.054Z,624.00
2023-01-26T13:56:48.035Z,568.00
2023-01-26T13:57:48.024Z,576.00
2023-01-26T13:58:48.014Z,528.00
2023-01-26T13:59:47.990Z,620.00
2023-01-26T14:00:47.974Z,584.00
2023-01-26T14:01:48.130Z,584.00
2023-01-26T14:02:48.073Z,556.00
2023-01-26T14:03:47.958Z,576.00
2023-01-26T14:04:47.959Z,632.00
2023-01-26T14:05:47.918Z,652.00
2023-01-26T14:06:47.911Z,644.00
2023-01-26T14:07:47.939Z,604.00
2023-01-26T14:08:47.893Z,728.00
2023-01-26T14:09:47.906Z,708.00
2023-01-26T14:10:47.930Z,632.00
2023-01-26T14:11:47.878Z,620.00
2023-01-26T14:12:47.953Z,564.00
2023-01-26T14:13:47.843Z,536.00
2023-01-26T14:14:47.815Z,580.00
2023-01-26T14:15:47.863Z,564.00
2023-01-26T14:16:47.790Z,576.00
2023-01-26T14:17:47.809Z,580.00
2023-01-26T14:18:47.770Z,504.00
2023-01-26T14:19:47.773Z,520.00
2023-01-26T14:20:47.778Z,536.00
2023-01-26T14:21:47.797Z,512.00
2023-01-26T14:22:47.739Z,508.00
2023-01-26T14:23:47.755Z,496.00
2023-01-26T14:24:47.724Z,480.00
2023-01-26T14:25:47.720Z,480.00
2023-01-26T14:26:47.689Z,488.00
2023-01-26T14:27:47.674Z,492.00
2023-01-26T14:28:47.810Z,504.00
2023-01-26T14:29:47.694Z,508.00
2023-01-26T14:30:47.808Z,488.00
2023-01-26T14:31:47.687Z,508.00
2023-01-26T14:32:47.648Z,476.00
2023-01-26T14:33:47.636Z,504.00
2023-01-26T14:34:47.602Z,452.00
2023-01-26T14:35:47.588Z,436.00
2023-01-26T14:36:47.589Z,432.00
2023-01-26T14:37:47.559Z,436.00
2023-01-26T14:38:47.557Z,420.00
2023-01-26T14:39:47.573Z,412.00
2023-01-26T14:40:47.529Z,432.00
2023-01-26T14:41:47.515Z,448.00
2023-01-26T14:42:47.523Z,528.00
2023-01-26T14:43:47.503Z,484.00
2023-01-26T14:44:47.511Z,476.00
2023-01-26T14:45:47.466Z,500.00
2023-01-26T14:46:47.578Z,452.00
2023-01-26T14:47:47.445Z,400.00
2023-01-26T14:48:47.445Z,476.00
2023-01-26T14:49:47.431Z,440.00
2023-01-26T14:50:47.431Z,396.00
2023-01-26T14:51:47.408Z,408.00
2023-01-26T14:52:47.419Z,424.00
2023-01-26T14:53:47.385Z,352.00
2023-01-26T14:54:47.379Z,384.00
2023-01-26T14:55:47.364Z,404.00
2023-01-26T14:56:47.357Z,448.00
2023-01-26T14:57:47.342Z,400.00
2023-01-26T14:58:47.340Z,388.00
2023-01-26T14:59:47.335Z,436.00
2023-01-26T15:00:47.321Z,424.00
2023-01-26T15:01:47.389Z,404.00
2023-01-26T15:02:47.300Z,424.00
2023-01-26T15:03:47.282Z,404.00
2023-01-26T15:04:47.279Z,416.00
2023-01-26T15:05:47.251Z,452.00
2023-01-26T15:06:47.246Z,388.00
2023-01-26T15:07:47.216Z,404.00
2023-01-26T15:08:47.253Z,432.00
2023-01-26T15:09:47.226Z,368.00
2023-01-26T15:10:47.191Z,384.00
2023-01-26T15:11:47.184Z,392.00
2023-01-26T15:12:47.178Z,408.00
2023-01-26T15:13:47.147Z,320.00
2023-01-26T15:14:47.167Z,304.00
2023-01-26T15:15:47.149Z,388.00
2023-01-26T15:16:47.118Z,296.00
2023-01-26T15:17:47.100Z,252.00
2023-01-26T15:18:47.122Z,296.00
2023-01-26T15:19:47.103Z,296.00
2023-01-26T15:20:47.091Z,240.00
2023-01-26T15:21:47.058Z,212.00
2023-01-26T15:22:47.051Z,252.00
2023-01-26T15:23:47.048Z,244.00
2023-01-26T15:24:47.052Z,200.00
2023-01-26T15:25:47.028Z,200.00
2023-01-26T15:26:47.005Z,196.00
2023-01-26T15:27:46.989Z,188.00
2023-01-26T15:28:46.995Z,204.00
2023-01-26T15:29:47.005Z,168.00
2023-01-26T15:30:47.008Z,164.00
2023-01-26T15:31:46.988Z,148.00
2023-01-26T15:32:46.947Z,140.00
2023-01-26T15:33:46.939Z,128.00
2023-01-26T15:34:46.928Z,132.00
2023-01-26T15:35:46.911Z,124.00
2023-01-26T15:36:46.898Z,108.00
2023-01-26T15:37:46.895Z,128.00
2023-01-26T15:38:46.879Z,120.00
2023-01-26T15:39:46.865Z,100.00
2023-01-26T15:40:46.897Z,116.00
2023-01-26T15:41:46.872Z,100.00
2023-01-26T15:42:46.833Z,112.00
2023-01-26T15:43:46.809Z,100.00
2023-01-26T15:44:46.817Z,96.00
2023-01-26T15:45:46.817Z,84.00
2023-01-26T15:46:46.906Z,72.00
2023-01-26T15:47:46.765Z,68.00
2023-01-26T15:48:46.777Z,64.00
2023-01-26T15:49:46.744Z,64.00
2023-01-26T15:50:46.765Z,64.00
2023-01-26T15:51:46.732Z,60.00
2023-01-26T15:52:46.728Z,60.00
2023-01-26T15:53:46.695Z,48.00
2023-01-26T15:54:46.689Z,48.00
2023-01-26T15:55:46.674Z,52.00
2023-01-26T15:56:46.734Z,44.00
2023-01-26T15:57:46.662Z,44.00
2023-01-26T15:58:46.648Z,36.00
2023-01-26T15:59:46.642Z,40.00
2023-01-26T16:00:46.676Z,36.00
2023-01-26T16:01:46.709Z,32.00
2023-01-26T16:02:46.616Z,36.00
2023-01-26T16:03:46.605Z,36.00
2023-01-26T16:04:46.603Z,32.00
